ENKBENVA

Guest
Details From ENKB - Kvernberget
To ENVA - Vaernes
Flight Number -
Tags Routegen Generated
Created
Modified
Stats Distance 85 nm / 157 km
Max Altitude 200 ft / 61 m
Waypoints 6
Social Downloads 1
Likes 0
Share VATSIM

Download

Looking for another format? Having issues loading an existing format? Contact us
Advertisement - Login to hide

Notes

Departing runway 7 ENKB. Arriving runway 9 ENVA.

Route

ENKB +63.14_+007.99 +63.27_+009.09 +63.44_+010.61 +63.46_+010.73 ENVA

ID Type Via Altitude Latitude Longitude Leg Dist Tot Dist Heading (true) Name
O ENKB APT - 200 ft / 61 m 63.11458˚ 7.84231˚ - 0 nm - -
+63.14_+007.99 LATLON - 200 ft / 61 m 63.13755˚ 7.99412˚ 4 nm 4 nm 71° / 72° -
+63.27_+009.09 LATLON - 200 ft / 61 m 63.26875˚ 9.09206˚ 30 nm 35 nm 75° / 76° -
+63.44_+010.61 LATLON - 200 ft / 61 m 63.43828˚ 10.60549˚ 42 nm 77 nm 75° / 77° -
+63.46_+010.73 LATLON - 200 ft / 61 m 63.45789˚ 10.72735˚ 3 nm 80 nm 70° / 70° -
O ENVA APT - 0 ft / 0 m 63.45766˚ 10.88929˚ 4 nm 84 nm 90° / 90° -

Altitude Profile

Advertisement - Login to hide

ENKB

Details ICAO ENKB (KSU)
Name KVERNBERGET
Region Norway
Timezone Europe/Oslo (UTC+1.0)
Stats Elevation 204 ft / 62 m (AMSL)
Location 63.111872° 7.824532°
Runways 1
Magnetic Variation 1.984° E

METAR

ENKB 150020Z AUTO VRB03KT 9999 BKN120/// M03/M06 Q0989 RMK WIND 745FT 15006KT

Decode

TAF

Not found

Departure Runways

ID Width Length Bearing (true) Bearing (mag) Surface Threshold Offset Overrun Length
07 148 ft / 45 m 6,192 ft / 1,887 m 71.39° 69.41° Asphalt 197 ft / 60 m 0 ft / 0 m
25 148 ft / 45 m 6,192 ft / 1,887 m 251.42° 249.44° Asphalt 263 ft / 80 m 0 ft / 0 m

ENVA

Details ICAO ENVA (TRD)
Name Vaernes
Region Norway
Timezone Europe/Oslo (UTC+1.0)
Stats Elevation 56 ft / 17 m (AMSL)
Location 63.457605° 10.917980°
Runways 1
Magnetic Variation 3.495° E

METAR

ENVA 142350Z 11007KT 9999 FEW008 SCT010 BKN021 M11/M13 Q0990 RMK WIND 670FT VRB02KT

Decode

TAF

TAF ENVA 142300Z 1500/1524 09008KT CAVOK PROB30 1500/1506 0800 FZFG VV002

Decode

Destination Runways

ID Width Length Bearing (true) Bearing (mag) Surface Threshold Offset Overrun Length
09 148 ft / 45 m 9,356 ft / 2,852 m 90.21° 86.71° Asphalt 984 ft / 300 m 0 ft / 0 m
27 148 ft / 45 m 9,356 ft / 2,852 m 270.26° 266.76° Asphalt 689 ft / 210 m 0 ft / 0 m

Approach Navaids

Runway Type Ident Frequency Range Bearing (true) Bearing (mag) Slope Elevation
09 Localiser TO 110.30 MHz 18 nm / 33 km 90.26° 86.76° - 31 ft / 9 m (AMSL)
09 Glidescope TO 110.30 MHz 10 nm / 19 km 90.23° 86.74° 3.00° 56 ft / 17 m (AMSL)
09 DME TO 110.30 MHz 18 nm / 33 km - - - 31 ft / 9 m (AMSL)
27 Localiser TD 109.90 MHz 18 nm / 33 km 270.20° 266.71° - 56 ft / 17 m (AMSL)
27 Glidescope TD 109.90 MHz 10 nm / 19 km 270.23° 266.74° 3.40° 56 ft / 17 m (AMSL)
27 DME TD 109.90 MHz 18 nm / 33 km - - - 78 ft / 24 m (AMSL)

Popular Alternatives